createdAt,value
2018-06-29T00:00:11.674Z,20.00
2018-06-29T00:01:13.891Z,20.00
2018-06-29T00:02:16.154Z,20.10
2018-06-29T00:03:18.374Z,20.00
2018-06-29T00:04:20.559Z,20.00
2018-06-29T00:05:23.198Z,20.10
2018-06-29T00:06:25.428Z,20.00
2018-06-29T00:08:30.064Z,20.10
2018-06-29T00:09:32.090Z,20.10
2018-06-29T00:10:34.332Z,20.10
2018-06-29T00:11:36.528Z,20.10
2018-06-29T00:12:38.727Z,20.10
2018-06-29T00:13:40.921Z,20.10
2018-06-29T00:14:43.130Z,20.10
2018-06-29T00:15:45.369Z,20.20
2018-06-29T00:16:47.617Z,20.10
2018-06-29T00:17:49.991Z,20.20
2018-06-29T00:18:52.210Z,20.10
2018-06-29T00:19:54.422Z,20.10
2018-06-29T00:20:56.610Z,20.20
2018-06-29T00:21:58.833Z,20.10
2018-06-29T00:23:01.041Z,20.10
2018-06-29T00:24:03.319Z,20.10
2018-06-29T00:25:05.614Z,20.10
2018-06-29T00:26:07.830Z,20.10
2018-06-29T00:27:10.067Z,20.10
2018-06-29T00:28:12.304Z,20.10
2018-06-29T00:29:14.513Z,20.10
2018-06-29T00:30:16.730Z,20.10
2018-06-29T00:31:18.931Z,20.20
2018-06-29T00:32:21.126Z,20.20
2018-06-29T00:33:23.387Z,20.20
2018-06-29T00:34:25.577Z,20.10
2018-06-29T00:35:27.783Z,20.10
2018-06-29T00:36:29.967Z,20.10
2018-06-29T00:37:32.178Z,20.10
2018-06-29T00:38:34.418Z,20.10
2018-06-29T00:39:36.594Z,20.20
2018-06-29T00:40:38.900Z,20.10
2018-06-29T00:41:41.118Z,20.10
2018-06-29T00:42:43.325Z,20.10
2018-06-29T00:43:45.534Z,20.00
2018-06-29T00:44:47.810Z,20.10
2018-06-29T00:45:50.121Z,20.10
2018-06-29T00:46:52.385Z,20.10
2018-06-29T00:47:54.595Z,20.20
2018-06-29T00:48:56.815Z,20.10
2018-06-29T00:49:59.018Z,20.10
2018-06-29T00:51:01.227Z,20.10
2018-06-29T00:52:03.452Z,20.10
2018-06-29T00:53:05.710Z,20.10
2018-06-29T00:54:07.933Z,20.10
2018-06-29T00:55:10.170Z,20.10
2018-06-29T00:56:12.398Z,20.20
2018-06-29T00:57:14.642Z,20.10
2018-06-29T00:58:16.825Z,20.10
2018-06-29T00:59:19.021Z,20.10
2018-06-29T01:00:21.286Z,20.10
2018-06-29T01:01:23.492Z,20.10
2018-06-29T01:02:25.730Z,20.10
2018-06-29T01:03:27.974Z,20.10
2018-06-29T01:04:30.216Z,20.10
2018-06-29T01:05:32.476Z,20.10
2018-06-29T01:06:34.830Z,20.10
2018-06-29T01:07:37.086Z,20.10
2018-06-29T01:08:39.361Z,20.20
2018-06-29T01:09:41.591Z,20.00
2018-06-29T01:10:43.809Z,20.00
2018-06-29T01:11:46.025Z,20.10
2018-06-29T01:12:48.285Z,20.10
2018-06-29T01:13:50.526Z,20.10
2018-06-29T01:14:52.765Z,20.20
2018-06-29T01:15:55.824Z,20.10
2018-06-29T01:16:58.098Z,20.00
2018-06-29T01:18:00.327Z,20.00
2018-06-29T01:19:02.575Z,20.00
2018-06-29T01:20:04.876Z,20.10
2018-06-29T01:21:07.106Z,20.10
2018-06-29T01:22:09.367Z,20.00
2018-06-29T01:23:11.658Z,20.10
2018-06-29T01:24:13.912Z,20.10
2018-06-29T01:25:16.271Z,20.20
2018-06-29T01:26:18.569Z,20.10
2018-06-29T01:27:20.813Z,20.10
2018-06-29T01:28:23.095Z,20.00
2018-06-29T01:29:25.335Z,20.10
2018-06-29T01:30:27.575Z,20.10
2018-06-29T01:31:29.818Z,20.10
2018-06-29T01:32:32.051Z,20.10
2018-06-29T01:33:34.338Z,20.20
2018-06-29T01:35:38.842Z,20.10
2018-06-29T01:36:41.082Z,20.10
2018-06-29T01:37:43.363Z,20.10
2018-06-29T01:38:45.600Z,20.20
2018-06-29T01:39:47.884Z,20.20
2018-06-29T01:41:52.487Z,20.10
2018-06-29T01:42:54.763Z,20.10
2018-06-29T01:43:57.014Z,20.10
2018-06-29T01:44:59.320Z,20.20
2018-06-29T01:46:01.572Z,20.10
2018-06-29T01:47:03.858Z,20.10
2018-06-29T01:48:06.521Z,20.10
2018-06-29T01:49:08.808Z,20.10
2018-06-29T01:50:11.175Z,20.10
2018-06-29T01:51:13.414Z,20.10
2018-06-29T01:52:15.694Z,20.10
2018-06-29T01:53:17.903Z,20.10
2018-06-29T01:54:20.154Z,20.10
2018-06-29T01:55:22.388Z,20.10
2018-06-29T01:56:24.642Z,20.10
2018-06-29T01:57:26.926Z,20.10
2018-06-29T01:58:29.162Z,20.10
2018-06-29T01:59:31.422Z,20.10
2018-06-29T02:00:33.715Z,20.10
2018-06-29T02:01:36.043Z,20.10
2018-06-29T02:02:38.370Z,20.20
2018-06-29T02:03:40.638Z,20.10
2018-06-29T02:04:42.846Z,20.10
2018-06-29T02:05:45.102Z,20.10
2018-06-29T02:07:49.668Z,20.10
2018-06-29T02:08:51.927Z,20.10
2018-06-29T02:09:54.239Z,20.10
2018-06-29T02:10:56.483Z,20.10
2018-06-29T02:11:58.731Z,20.10
2018-06-29T02:13:00.987Z,20.10
2018-06-29T02:14:03.259Z,20.10
2018-06-29T02:15:05.599Z,20.10
2018-06-29T02:16:07.865Z,20.10
2018-06-29T02:17:10.143Z,20.10
2018-06-29T02:18:12.398Z,20.10
2018-06-29T02:19:14.668Z,20.20
2018-06-29T02:20:16.942Z,20.10
2018-06-29T02:22:21.431Z,20.10
2018-06-29T02:23:23.667Z,20.10
2018-06-29T02:24:25.965Z,20.10
2018-06-29T02:25:28.229Z,20.10
2018-06-29T02:26:30.496Z,20.10
2018-06-29T02:27:32.769Z,20.10
2018-06-29T02:28:35.006Z,20.10
2018-06-29T02:29:37.275Z,20.10
2018-06-29T02:30:39.579Z,20.10
2018-06-29T02:31:41.887Z,20.00
2018-06-29T02:32:44.144Z,20.20
2018-06-29T02:33:46.378Z,20.10
2018-06-29T02:35:50.933Z,20.10
2018-06-29T02:36:53.614Z,20.10
2018-06-29T02:37:55.902Z,20.00
2018-06-29T02:38:58.143Z,20.10
2018-06-29T02:40:00.368Z,20.10
2018-06-29T02:41:02.644Z,20.10
2018-06-29T02:42:04.888Z,20.10
2018-06-29T02:43:07.147Z,20.00
2018-06-29T02:44:09.410Z,20.00
2018-06-29T02:45:11.667Z,20.00
2018-06-29T02:46:13.927Z,20.00
2018-06-29T02:47:16.172Z,20.00
2018-06-29T02:48:18.445Z,20.00
2018-06-29T02:49:20.662Z,20.00
2018-06-29T02:50:22.933Z,20.00
2018-06-29T02:51:25.207Z,20.00
2018-06-29T02:52:27.442Z,20.00
2018-06-29T02:53:29.718Z,20.00
2018-06-29T02:54:31.986Z,20.00
2018-06-29T02:55:34.274Z,20.00
2018-06-29T02:56:36.663Z,20.00
2018-06-29T02:57:38.886Z,20.00
2018-06-29T02:58:41.099Z,20.00
2018-06-29T02:59:43.299Z,20.10
2018-06-29T03:00:45.551Z,20.10
2018-06-29T03:01:47.796Z,20.00
2018-06-29T03:02:50.142Z,20.10
2018-06-29T03:03:52.298Z,20.00
2018-06-29T03:04:54.488Z,20.20
2018-06-29T03:05:56.832Z,20.10
2018-06-29T03:06:59.034Z,20.10
2018-06-29T03:08:01.231Z,20.10
2018-06-29T03:09:06.039Z,20.00
2018-06-29T03:10:08.251Z,20.10
2018-06-29T03:11:10.498Z,20.10
2018-06-29T03:12:12.682Z,20.10
2018-06-29T03:13:14.886Z,20.10
2018-06-29T03:14:17.077Z,20.20
2018-06-29T03:15:19.321Z,20.20
2018-06-29T03:16:21.547Z,20.10
2018-06-29T03:17:23.759Z,20.10
2018-06-29T03:18:25.957Z,20.10
2018-06-29T03:19:28.173Z,20.10
2018-06-29T03:20:30.430Z,20.10
2018-06-29T03:21:32.655Z,20.20
2018-06-29T03:22:34.850Z,20.10
2018-06-29T03:23:37.058Z,20.10
2018-06-29T03:25:41.426Z,20.10
2018-06-29T03:26:43.630Z,20.10
2018-06-29T03:27:45.837Z,20.20
2018-06-29T03:29:50.229Z,20.10
2018-06-29T03:30:52.430Z,20.10
2018-06-29T03:31:54.610Z,20.10
2018-06-29T03:32:56.829Z,20.10
2018-06-29T03:33:59.149Z,20.10
2018-06-29T03:35:01.955Z,20.10
2018-06-29T03:36:04.382Z,20.10
2018-06-29T03:37:06.716Z,20.10
2018-06-29T03:38:09.299Z,20.10
2018-06-29T03:39:12.090Z,20.10
2018-06-29T03:40:14.317Z,20.10
2018-06-29T03:41:16.454Z,20.20
2018-06-29T03:42:18.646Z,20.10
2018-06-29T03:44:23.062Z,20.10
2018-06-29T03:45:25.460Z,20.10
2018-06-29T03:46:27.669Z,20.10
2018-06-29T03:47:30.054Z,20.10
2018-06-29T03:48:32.234Z,20.10
2018-06-29T03:49:34.493Z,20.10
2018-06-29T03:50:36.749Z,20.10
2018-06-29T03:51:38.945Z,20.10
2018-06-29T03:52:41.208Z,20.10
2018-06-29T03:53:43.434Z,20.10
2018-06-29T03:54:45.626Z,20.10
2018-06-29T03:55:47.814Z,20.10
2018-06-29T03:57:52.329Z,20.10
2018-06-29T03:58:54.510Z,20.20
2018-06-29T03:59:56.790Z,20.10
2018-06-29T04:00:59.014Z,20.10
2018-06-29T04:02:01.220Z,20.20
2018-06-29T04:03:03.454Z,20.10
2018-06-29T04:05:08.231Z,20.10
2018-06-29T04:06:10.458Z,20.10
2018-06-29T04:07:12.666Z,20.10
2018-06-29T04:08:14.879Z,20.00
2018-06-29T04:09:17.069Z,20.00
2018-06-29T04:10:19.279Z,20.00
2018-06-29T04:11:21.453Z,20.00
2018-06-29T04:12:23.644Z,20.00
2018-06-29T04:13:26.803Z,20.10
2018-06-29T04:14:29.774Z,20.00
2018-06-29T04:15:31.979Z,20.10
2018-06-29T04:16:34.833Z,20.00
2018-06-29T04:17:37.268Z,20.00
2018-06-29T04:18:39.463Z,20.10
2018-06-29T04:19:41.724Z,20.10
2018-06-29T04:20:43.932Z,20.10
2018-06-29T04:21:46.128Z,20.10
2018-06-29T04:22:48.345Z,20.10
2018-06-29T04:23:50.568Z,20.10
2018-06-29T04:25:07.546Z,20.10
2018-06-29T04:26:09.772Z,20.10
2018-06-29T04:27:12.036Z,20.10
2018-06-29T04:28:14.239Z,20.10
2018-06-29T04:29:16.444Z,20.10
2018-06-29T04:30:18.689Z,20.10
2018-06-29T04:31:20.899Z,20.00
2018-06-29T04:32:23.194Z,20.00
2018-06-29T04:33:25.471Z,20.10
2018-06-29T04:35:29.945Z,20.10
2018-06-29T04:36:32.145Z,20.10
2018-06-29T04:37:34.334Z,20.10
2018-06-29T04:38:36.524Z,20.20
2018-06-29T04:39:38.723Z,20.20
2018-06-29T04:41:43.173Z,20.10
2018-06-29T04:42:45.404Z,20.10
2018-06-29T04:43:47.616Z,20.10
2018-06-29T04:44:49.834Z,20.10
2018-06-29T04:45:52.271Z,20.10
2018-06-29T04:47:57.191Z,20.10
2018-06-29T04:49:02.798Z,20.10
2018-06-29T04:50:05.887Z,20.00
2018-06-29T04:51:08.143Z,20.10
2018-06-29T04:52:10.591Z,20.10
2018-06-29T04:53:13.800Z,20.10
2018-06-29T04:54:16.400Z,20.10
2018-06-29T04:55:18.619Z,20.10
2018-06-29T04:56:21.258Z,20.20
2018-06-29T04:57:23.466Z,20.20
2018-06-29T04:58:25.723Z,20.20
2018-06-29T04:59:28.180Z,20.20
2018-06-29T05:00:30.382Z,20.20
2018-06-29T05:01:32.618Z,20.20
2018-06-29T05:02:35.157Z,20.20
2018-06-29T05:03:38.566Z,20.20
2018-06-29T05:04:40.837Z,20.20
2018-06-29T05:05:43.145Z,20.20
2018-06-29T05:06:45.313Z,20.20
2018-06-29T05:07:47.503Z,20.20
2018-06-29T05:08:50.222Z,20.20
2018-06-29T05:09:52.640Z,20.30
2018-06-29T05:10:54.834Z,20.20
2018-06-29T05:11:57.043Z,20.20
2018-06-29T05:12:59.205Z,20.20
2018-06-29T05:14:01.402Z,20.20
2018-06-29T05:15:03.642Z,20.20
2018-06-29T05:17:08.103Z,20.10
2018-06-29T05:18:10.274Z,20.10
2018-06-29T05:19:12.474Z,20.10
2018-06-29T05:21:17.102Z,20.10
2018-06-29T05:22:19.379Z,20.20
2018-06-29T05:23:21.566Z,20.20
2018-06-29T05:24:23.762Z,20.20
2018-06-29T05:25:26.054Z,20.30
2018-06-29T05:26:28.301Z,20.20
2018-06-29T05:27:30.507Z,20.30
2018-06-29T05:28:32.775Z,20.30
2018-06-29T05:29:35.008Z,20.30
2018-06-29T05:30:37.191Z,20.30
2018-06-29T05:31:39.430Z,20.40
2018-06-29T05:32:41.797Z,20.40
2018-06-29T05:34:46.424Z,20.50
2018-06-29T05:35:48.705Z,20.60
2018-06-29T05:37:53.080Z,20.60
2018-06-29T05:38:55.289Z,20.80
2018-06-29T05:39:57.551Z,20.80
2018-06-29T05:40:59.812Z,20.80
2018-06-29T05:42:02.057Z,20.80
2018-06-29T05:43:04.283Z,20.80
2018-06-29T05:44:06.761Z,20.80
2018-06-29T05:45:08.767Z,20.90
2018-06-29T05:47:13.223Z,20.90
2018-06-29T05:48:15.429Z,20.90
2018-06-29T05:49:17.640Z,21.00
2018-06-29T05:50:19.810Z,20.90
2018-06-29T05:51:22.042Z,20.90
2018-06-29T05:52:24.283Z,20.90
2018-06-29T05:53:26.478Z,20.90
2018-06-29T05:54:28.710Z,20.90
2018-06-29T05:55:30.929Z,20.90
2018-06-29T05:56:33.206Z,20.90
2018-06-29T05:57:35.635Z,20.80
2018-06-29T05:58:37.843Z,20.80
2018-06-29T05:59:40.123Z,20.80
2018-06-29T06:00:42.447Z,20.90
2018-06-29T06:01:44.743Z,20.80
2018-06-29T06:02:47.055Z,20.60
2018-06-29T06:03:49.291Z,20.80
2018-06-29T06:04:51.607Z,20.80
2018-06-29T06:05:53.846Z,20.80
2018-06-29T06:06:56.075Z,20.80
2018-06-29T06:07:58.274Z,20.70
2018-06-29T06:10:10.706Z,20.70
2018-06-29T06:11:12.913Z,20.70
2018-06-29T06:12:15.122Z,20.70
2018-06-29T06:14:19.534Z,20.80
2018-06-29T06:15:21.729Z,20.80
2018-06-29T06:16:23.935Z,20.70
2018-06-29T06:17:26.126Z,20.70
2018-06-29T06:18:28.426Z,20.80
2018-06-29T06:19:42.062Z,20.80
2018-06-29T06:20:44.270Z,20.80
2018-06-29T06:21:46.464Z,20.80
2018-06-29T06:22:48.642Z,20.80
2018-06-29T06:23:50.862Z,20.80
2018-06-29T06:24:53.075Z,20.80
2018-06-29T06:25:55.296Z,20.80
2018-06-29T06:26:57.559Z,20.90
2018-06-29T06:27:59.790Z,20.90
2018-06-29T06:29:02.011Z,20.90
2018-06-29T06:30:04.501Z,20.90
2018-06-29T06:31:06.746Z,20.90
2018-06-29T06:32:08.946Z,21.00
2018-06-29T06:33:11.187Z,20.90
2018-06-29T06:34:13.358Z,20.90
2018-06-29T06:35:15.593Z,21.00
2018-06-29T06:36:17.834Z,20.90
2018-06-29T06:37:20.030Z,20.90
2018-06-29T06:38:22.221Z,21.00
2018-06-29T06:39:24.430Z,21.00
2018-06-29T06:40:26.668Z,21.00
2018-06-29T06:41:29.106Z,21.00
2018-06-29T06:42:31.320Z,21.20
2018-06-29T06:43:33.526Z,21.10
2018-06-29T06:44:35.756Z,21.20
2018-06-29T06:45:37.939Z,21.20
2018-06-29T06:46:40.151Z,21.30
2018-06-29T06:47:42.366Z,21.40
2018-06-29T06:48:44.578Z,21.50
2018-06-29T06:49:46.806Z,21.60
2018-06-29T06:50:49.002Z,21.70
2018-06-29T06:51:51.195Z,21.70
2018-06-29T06:52:53.544Z,21.80
2018-06-29T06:56:07.184Z,22.00
2018-06-29T06:57:09.383Z,22.10
2018-06-29T06:58:11.574Z,22.20
2018-06-29T06:59:13.802Z,22.20
2018-06-29T07:00:16.054Z,22.30
2018-06-29T07:03:22.806Z,22.40
2018-06-29T07:04:24.994Z,22.30
2018-06-29T07:05:27.251Z,22.30
2018-06-29T07:07:31.701Z,22.30
2018-06-29T07:08:33.894Z,22.30
2018-06-29T07:09:36.072Z,22.40
2018-06-29T07:11:40.535Z,22.40
2018-06-29T07:12:42.777Z,22.40
2018-06-29T07:13:45.049Z,22.40
2018-06-29T07:14:47.196Z,22.40
2018-06-29T07:15:49.406Z,22.30
2018-06-29T07:16:51.610Z,22.40
2018-06-29T07:17:53.811Z,22.40
2018-06-29T07:18:55.984Z,22.50
2018-06-29T07:19:58.182Z,22.50
2018-06-29T07:22:02.962Z,22.60
2018-06-29T07:23:05.162Z,22.60
2018-06-29T07:24:07.395Z,22.60
2018-06-29T07:25:09.598Z,22.60
2018-06-29T07:26:11.815Z,22.60
2018-06-29T07:27:14.065Z,22.60
2018-06-29T07:28:16.254Z,22.70
2018-06-29T07:29:18.442Z,22.70
2018-06-29T07:30:20.821Z,22.80
2018-06-29T07:31:23.177Z,22.70
2018-06-29T07:32:25.368Z,22.80
2018-06-29T07:33:27.574Z,22.80
2018-06-29T07:34:29.771Z,22.80
2018-06-29T07:35:31.983Z,22.80
2018-06-29T07:36:34.185Z,22.80
2018-06-29T07:37:36.363Z,22.80
2018-06-29T07:38:38.625Z,22.80
2018-06-29T07:40:43.065Z,22.80
2018-06-29T07:41:45.270Z,22.80
2018-06-29T07:43:49.687Z,22.80
2018-06-29T07:44:51.899Z,22.80
2018-06-29T07:45:54.086Z,22.80
2018-06-29T07:46:56.271Z,22.80
2018-06-29T07:47:58.439Z,22.70
2018-06-29T07:49:00.630Z,22.70
2018-06-29T07:51:05.952Z,22.70
2018-06-29T07:52:08.129Z,22.70
2018-06-29T07:53:10.299Z,22.70
2018-06-29T07:54:12.486Z,22.70
2018-06-29T07:55:14.665Z,22.70
2018-06-29T07:56:16.914Z,22.70
2018-06-29T07:58:21.390Z,22.70
2018-06-29T07:59:23.472Z,22.60
2018-06-29T08:00:25.658Z,22.60
2018-06-29T08:01:27.858Z,22.60
2018-06-29T08:02:30.054Z,22.70
2018-06-29T08:03:33.574Z,22.70
2018-06-29T08:04:35.759Z,22.90
2018-06-29T08:05:37.938Z,22.80
2018-06-29T08:06:40.136Z,22.80
2018-06-29T08:07:42.339Z,22.90
2018-06-29T08:08:44.559Z,22.90
2018-06-29T08:09:46.762Z,22.90
2018-06-29T08:10:48.935Z,22.90
2018-06-29T08:11:51.143Z,23.00
2018-06-29T08:12:53.363Z,23.00
2018-06-29T08:13:55.564Z,23.00
2018-06-29T08:14:57.726Z,23.00
2018-06-29T08:15:59.894Z,23.10
2018-06-29T08:17:02.075Z,23.00
2018-06-29T08:18:04.437Z,23.00
2018-06-29T08:19:06.643Z,23.00
2018-06-29T08:20:08.842Z,23.00
2018-06-29T08:21:11.024Z,23.00
2018-06-29T08:22:13.676Z,23.00
2018-06-29T08:23:15.858Z,23.00
2018-06-29T08:24:18.125Z,23.10
2018-06-29T08:25:20.274Z,23.00
2018-06-29T08:26:25.182Z,23.00
2018-06-29T08:27:27.447Z,23.10
2018-06-29T08:28:29.618Z,23.10
2018-06-29T08:29:31.812Z,23.10
2018-06-29T08:30:34.035Z,23.20
2018-06-29T08:31:36.209Z,23.10
2018-06-29T08:32:38.543Z,23.10
2018-06-29T08:33:40.757Z,23.10
2018-06-29T08:34:43.019Z,23.10
2018-06-29T08:35:45.275Z,23.20
2018-06-29T08:36:47.499Z,23.20
2018-06-29T08:37:49.702Z,23.20
2018-06-29T08:38:51.894Z,23.20
2018-06-29T08:39:54.074Z,23.20
2018-06-29T08:40:56.282Z,23.20
2018-06-29T08:43:00.693Z,23.10
2018-06-29T08:44:03.201Z,23.10
2018-06-29T08:45:06.634Z,23.10
2018-06-29T08:46:08.869Z,23.10
2018-06-29T08:47:11.166Z,23.10
2018-06-29T08:48:13.277Z,23.10
2018-06-29T08:49:15.442Z,23.10
2018-06-29T08:50:17.642Z,23.10
2018-06-29T08:51:19.846Z,23.10
2018-06-29T08:52:22.029Z,23.10
2018-06-29T08:53:24.387Z,23.10
2018-06-29T08:54:26.566Z,23.10
2018-06-29T08:55:28.763Z,23.10
2018-06-29T08:56:30.946Z,23.10
2018-06-29T08:57:33.158Z,23.10
2018-06-29T08:59:37.558Z,23.00
2018-06-29T09:00:39.770Z,23.00
2018-06-29T09:01:41.971Z,23.00
2018-06-29T09:02:44.197Z,23.10
2018-06-29T09:03:46.370Z,23.00
2018-06-29T09:04:48.571Z,23.00
2018-06-29T09:05:50.768Z,23.10
2018-06-29T09:06:52.978Z,23.10
2018-06-29T09:07:55.147Z,23.00
2018-06-29T09:08:57.318Z,23.10
2018-06-29T09:11:01.828Z,23.10
2018-06-29T09:12:04.198Z,23.10
2018-06-29T09:13:06.442Z,23.10
2018-06-29T09:15:10.863Z,23.20
2018-06-29T09:17:15.259Z,23.20
2018-06-29T09:18:17.426Z,23.20
2018-06-29T09:19:19.613Z,23.30
2018-06-29T09:20:21.829Z,23.30
2018-06-29T09:21:24.016Z,23.40
2018-06-29T09:22:26.207Z,23.40
2018-06-29T09:23:28.425Z,23.40
2018-06-29T09:24:30.614Z,23.50
2018-06-29T09:25:32.814Z,23.60
2018-06-29T09:26:35.003Z,23.60
2018-06-29T09:28:39.395Z,23.70
2018-06-29T09:29:41.571Z,23.80
2018-06-29T09:30:43.750Z,23.90
2018-06-29T09:31:46.467Z,23.90
2018-06-29T09:32:48.656Z,24.00
2018-06-29T09:33:50.868Z,24.10
2018-06-29T09:34:53.059Z,24.10
2018-06-29T09:35:55.287Z,24.20
2018-06-29T09:36:57.506Z,24.20
2018-06-29T09:37:59.727Z,24.20
2018-06-29T09:39:02.015Z,24.20
2018-06-29T09:40:04.254Z,24.30
2018-06-29T09:41:06.482Z,24.20
2018-06-29T09:44:13.881Z,24.20
2018-06-29T09:45:16.514Z,24.20
2018-06-29T09:46:18.718Z,24.10
2018-06-29T09:47:21.122Z,24.20
2018-06-29T09:48:23.531Z,24.10
2018-06-29T09:49:25.862Z,24.20
2018-06-29T09:50:28.263Z,24.20
2018-06-29T09:51:30.483Z,24.20
2018-06-29T09:52:32.902Z,24.20
2018-06-29T09:53:35.086Z,24.40
2018-06-29T09:54:37.462Z,24.30
2018-06-29T09:55:39.699Z,24.30
2018-06-29T09:56:42.129Z,24.20
2018-06-29T09:57:44.518Z,24.20
2018-06-29T09:58:46.758Z,24.20
2018-06-29T09:59:49.322Z,24.20
2018-06-29T10:00:55.412Z,24.20
2018-06-29T10:01:53.783Z,24.20
2018-06-29T10:03:59.150Z,24.20
2018-06-29T10:05:01.562Z,24.10
2018-06-29T10:06:03.815Z,24.10
2018-06-29T10:07:06.195Z,24.10
2018-06-29T10:08:08.488Z,24.20
2018-06-29T10:09:11.766Z,24.10
2018-06-29T10:10:13.977Z,24.00
2018-06-29T10:11:16.243Z,24.10
2018-06-29T10:12:19.252Z,24.00
2018-06-29T10:14:24.684Z,24.00
2018-06-29T10:15:27.133Z,24.10
2018-06-29T10:16:29.363Z,24.10
2018-06-29T10:17:32.348Z,24.10
2018-06-29T10:18:34.718Z,24.10
2018-06-29T10:19:36.969Z,24.10
2018-06-29T10:20:39.158Z,24.10
2018-06-29T10:21:41.395Z,24.10
2018-06-29T10:22:43.647Z,24.20
2018-06-29T10:23:46.850Z,24.20
2018-06-29T10:24:49.079Z,24.30
2018-06-29T10:25:51.254Z,24.30
2018-06-29T10:26:53.479Z,24.50
2018-06-29T10:27:55.722Z,24.50
2018-06-29T10:28:57.938Z,24.60
2018-06-29T10:30:00.165Z,24.60
2018-06-29T10:31:02.398Z,24.70
2018-06-29T10:32:04.660Z,24.80
2018-06-29T10:33:06.883Z,24.80
2018-06-29T10:34:09.102Z,24.90
2018-06-29T10:36:13.679Z,24.90
2018-06-29T10:37:15.905Z,24.90
2018-06-29T10:38:18.114Z,24.90
2018-06-29T10:39:20.409Z,25.00
2018-06-29T10:40:22.735Z,25.00
2018-06-29T10:42:27.921Z,25.10
2018-06-29T10:43:30.318Z,25.20
2018-06-29T10:44:32.719Z,25.20
2018-06-29T10:45:35.039Z,25.20
2018-06-29T10:46:37.702Z,25.20
2018-06-29T10:47:40.054Z,25.20
2018-06-29T10:48:42.538Z,25.30
2018-06-29T10:50:47.211Z,25.30
2018-06-29T10:51:49.551Z,25.30
2018-06-29T10:52:51.883Z,25.40
2018-06-29T10:53:54.223Z,25.40
2018-06-29T10:54:56.607Z,25.40
2018-06-29T10:55:58.972Z,25.50
2018-06-29T10:57:01.325Z,25.60
2018-06-29T10:58:03.755Z,25.60
2018-06-29T10:59:06.032Z,25.60
2018-06-29T11:00:08.395Z,25.60
2018-06-29T11:01:10.735Z,25.70
2018-06-29T11:02:13.148Z,25.60
2018-06-29T11:03:15.466Z,25.70
2018-06-29T11:04:17.882Z,25.80
2018-06-29T11:05:20.266Z,25.80
2018-06-29T11:06:22.619Z,25.90
2018-06-29T11:07:25.031Z,25.90
2018-06-29T11:08:27.349Z,25.90
2018-06-29T11:09:29.702Z,25.90
2018-06-29T11:10:32.113Z,26.00
2018-06-29T11:11:34.479Z,26.00
2018-06-29T11:12:36.841Z,26.10
2018-06-29T11:13:39.183Z,26.10
2018-06-29T11:14:41.522Z,26.20
2018-06-29T11:15:43.879Z,26.20
2018-06-29T11:16:46.233Z,26.20
2018-06-29T11:17:48.556Z,26.30
2018-06-29T11:18:50.873Z,26.30
2018-06-29T11:19:53.695Z,26.40
2018-06-29T11:20:56.115Z,26.40
2018-06-29T11:21:58.439Z,26.30
2018-06-29T11:24:03.056Z,26.40
2018-06-29T11:25:05.336Z,26.40
2018-06-29T11:26:07.684Z,26.40
2018-06-29T11:27:10.035Z,26.40
2018-06-29T11:28:12.332Z,26.50
2018-06-29T11:29:14.654Z,26.60
2018-06-29T11:30:17.006Z,26.50
2018-06-29T11:31:19.288Z,26.60
2018-06-29T11:32:21.598Z,26.60
2018-06-29T11:33:23.938Z,26.70
2018-06-29T11:34:26.282Z,26.80
2018-06-29T11:35:28.653Z,26.90
2018-06-29T11:36:30.999Z,26.90
2018-06-29T11:37:33.307Z,26.90
2018-06-29T11:38:35.600Z,26.90
2018-06-29T11:39:37.901Z,26.90
2018-06-29T11:40:40.274Z,27.00
2018-06-29T11:41:42.981Z,27.00
2018-06-29T11:42:45.316Z,27.10
2018-06-29T11:43:47.660Z,27.10
2018-06-29T11:44:50.125Z,27.10
2018-06-29T11:45:52.515Z,27.20
2018-06-29T11:46:54.832Z,27.20
2018-06-29T11:47:57.242Z,27.30
2018-06-29T11:48:59.544Z,27.40
2018-06-29T11:51:04.259Z,27.50
2018-06-29T11:52:06.583Z,27.50
2018-06-29T11:53:08.830Z,27.60
2018-06-29T11:54:11.196Z,27.60
2018-06-29T11:55:13.509Z,27.60
2018-06-29T11:56:15.837Z,27.60
2018-06-29T11:57:18.143Z,27.50
2018-06-29T11:59:22.877Z,27.50
2018-06-29T12:01:27.697Z,27.60
2018-06-29T12:02:30.161Z,27.60
2018-06-29T12:03:32.566Z,27.70
2018-06-29T12:04:34.927Z,27.70
2018-06-29T12:05:37.234Z,27.80
2018-06-29T12:06:39.574Z,27.80
2018-06-29T12:07:41.931Z,27.80
2018-06-29T12:08:44.260Z,27.70
2018-06-29T12:09:46.620Z,27.90
2018-06-29T12:10:48.975Z,27.90
2018-06-29T12:11:51.331Z,28.00
2018-06-29T12:12:53.700Z,28.00
2018-06-29T12:13:56.060Z,28.10
2018-06-29T12:14:58.468Z,28.00
2018-06-29T12:16:00.749Z,28.00
2018-06-29T12:17:03.136Z,28.10
2018-06-29T12:18:05.503Z,28.00
2018-06-29T12:19:07.866Z,28.10
2018-06-29T12:20:10.256Z,28.00
2018-06-29T12:21:12.592Z,28.10
2018-06-29T12:22:14.923Z,28.00
2018-06-29T12:23:17.261Z,28.00
2018-06-29T12:24:19.606Z,28.10
2018-06-29T12:25:21.915Z,28.10
2018-06-29T12:27:26.700Z,28.20
2018-06-29T12:28:29.959Z,28.30
2018-06-29T12:29:32.336Z,28.30
2018-06-29T12:30:34.694Z,28.40
2018-06-29T12:31:37.057Z,28.40
2018-06-29T12:32:39.452Z,28.40
2018-06-29T12:33:41.783Z,28.50
2018-06-29T12:34:44.563Z,28.50
2018-06-29T12:35:46.887Z,28.60
2018-06-29T12:36:49.234Z,28.60
2018-06-29T12:37:51.556Z,28.70
2018-06-29T12:38:53.871Z,28.80
2018-06-29T12:39:56.203Z,28.90
2018-06-29T12:40:58.574Z,29.00
2018-06-29T12:42:00.892Z,29.00
2018-06-29T12:43:03.279Z,29.10
2018-06-29T12:44:05.604Z,29.10
2018-06-29T12:45:07.938Z,29.20
2018-06-29T12:46:10.285Z,29.20
2018-06-29T12:47:12.583Z,29.20
2018-06-29T12:48:14.914Z,29.20
2018-06-29T12:49:17.315Z,29.10
2018-06-29T12:50:19.655Z,29.10
2018-06-29T12:51:21.984Z,29.00
2018-06-29T12:52:24.385Z,29.00
2018-06-29T12:53:26.899Z,28.80
2018-06-29T12:54:29.274Z,28.80
2018-06-29T12:55:31.598Z,28.70
2018-06-29T12:57:36.232Z,28.70
2018-06-29T12:58:38.586Z,28.60
2018-06-29T12:59:40.916Z,28.50
2018-06-29T13:00:43.228Z,28.60
2018-06-29T13:01:45.567Z,28.60
2018-06-29T13:02:47.956Z,28.60
2018-06-29T13:03:50.230Z,28.60
2018-06-29T13:04:52.744Z,28.60
2018-06-29T13:06:57.274Z,28.50
2018-06-29T13:07:59.631Z,28.50
2018-06-29T13:09:01.985Z,28.50
2018-06-29T13:10:04.349Z,28.50
2018-06-29T13:11:06.757Z,28.40
2018-06-29T13:12:09.143Z,28.40
2018-06-29T13:14:13.812Z,28.30
2018-06-29T13:15:16.008Z,28.20
2018-06-29T13:16:18.282Z,28.10
2018-06-29T13:17:20.552Z,28.10
2018-06-29T13:18:22.839Z,28.00
2018-06-29T13:19:25.142Z,28.00
2018-06-29T13:20:28.106Z,27.90
2018-06-29T13:21:31.063Z,28.00
2018-06-29T13:22:33.408Z,28.00
2018-06-29T13:23:35.690Z,28.10
2018-06-29T13:24:37.988Z,28.10
2018-06-29T13:25:40.198Z,28.10
2018-06-29T13:26:42.394Z,28.20
2018-06-29T13:27:44.611Z,28.20
2018-06-29T13:28:46.841Z,28.20
2018-06-29T13:29:49.064Z,28.30
2018-06-29T13:30:51.475Z,28.30
2018-06-29T13:31:53.615Z,28.30
2018-06-29T13:32:55.858Z,28.30
2018-06-29T13:33:58.113Z,28.40
2018-06-29T13:35:00.315Z,28.40
2018-06-29T13:36:02.650Z,28.60
2018-06-29T13:37:04.840Z,28.70
2018-06-29T13:38:07.194Z,28.80
2018-06-29T13:39:10.348Z,28.80
2018-06-29T13:40:12.649Z,28.80
2018-06-29T13:41:14.913Z,28.70
2018-06-29T13:42:17.241Z,28.70
2018-06-29T13:43:19.537Z,28.70
2018-06-29T13:44:21.772Z,28.80
2018-06-29T13:46:26.215Z,28.90
2018-06-29T13:47:28.518Z,29.10
2018-06-29T13:48:30.771Z,29.20
2018-06-29T13:49:33.015Z,29.30
2018-06-29T13:50:35.244Z,29.40
2018-06-29T13:51:37.662Z,29.50
2018-06-29T13:52:39.912Z,29.50
2018-06-29T13:53:42.223Z,29.60
2018-06-29T13:54:44.531Z,29.60
2018-06-29T13:55:46.732Z,29.60
2018-06-29T13:56:49.008Z,29.60
2018-06-29T13:57:51.275Z,29.70
2018-06-29T13:58:53.512Z,29.70
2018-06-29T13:59:55.765Z,29.70
2018-06-29T14:00:58.033Z,29.60
2018-06-29T14:03:02.515Z,29.40
2018-06-29T14:04:04.744Z,29.20
2018-06-29T14:05:07.035Z,29.10
2018-06-29T14:06:09.270Z,29.00
2018-06-29T14:07:11.491Z,29.00
2018-06-29T14:08:13.844Z,29.00
2018-06-29T14:09:16.055Z,29.00
2018-06-29T14:10:18.284Z,29.20
2018-06-29T14:11:20.560Z,29.20
2018-06-29T14:12:22.856Z,29.20
2018-06-29T14:13:25.104Z,29.30
2018-06-29T14:14:27.326Z,29.40
2018-06-29T14:15:29.714Z,29.50
2018-06-29T14:16:31.926Z,29.60
2018-06-29T14:18:36.363Z,29.50
2018-06-29T14:19:38.562Z,29.50
2018-06-29T14:20:40.782Z,29.50